Air Sicilia Virtual Airways - Route

Air Sicilia Virtual Airways - SIC319L

( UZ ) UTST
Termez Airport
TERMEZ ( TMJ )
plane_to ( PK ) OPSK
Sukkur Airport
MIRPUR KHAS ( SKZ )
Business Exec World Tour 2018 - LEG: 43

AIRPORT NEAR NAVIGATION AIDS

Type Name Frequency
NDB Termez 398 KHZ
VOR-DME Termez 113400 KHZ

METAR / TAF
UTST 180400Z 26010KT CAVOK 24/06 Q1011 R88/CLRD70 NOSIG

RUNWAY INFORMATION

Runway Runway length Runway width Runway elevation Runway displaced threshold Runway heading
07 9843 138 1014 0 75
25 9843 138 1027 0 255

AIRPORT FREQUENCIES

Type Name Frequency
ACC SAMARKAND 134.3 MHZ
RDO RDO 472.8 MHZ
TWR TWR 118.6 MHZ

AIRPORT NEAR NAVIGATION AIDS

Type Name Frequency
NDB Sukkur 375 KHZ

METAR / TAF
OPSK 180400Z 18006KT 4000 HZ NSC 31/25 Q1001 NOSIG
OPSK 171600Z 1718/1818 18008KT 4000 HZ SCT030 SCT100 TEMPO 1801/1805 18005KT 3000 HZ SCT030 FM180600 16005G15KT 4000 HZ FEW030 SCT100

RUNWAY INFORMATION

Runway Runway length Runway width Runway elevation Runway displaced threshold Runway heading
14 9000 98 196 0 140.5
32 9000 98 192 0 320.5

AIRPORT FREQUENCIES

Type Name Frequency
GND TWR 121.8 MHZ
TWR TWR 122.5 MHZ

Flightplan

AMDAR M875 SITAX A466 SAJAN G325 ZB G326 LUBNA G214 SK

Air Sicilia Virtual Airways Fleets

AVAILABLE AIRCRAFTS for route at this time in Termez Airport
C550 - Cessna 550 Citation II
( US ) Cessna

Aircraft in fleet: 1

CL30 - BD-100 Challenger 300
( CA ) Bombardier

Aircraft in fleet: 1

LJ35 - Bombardier Learjet 35A
( CA ) Bombardier

Aircraft in fleet: 1

580 NM

Distance in nautical miles.

€ 205,00

Ticket price for this flight.

Nr. 43

Leg



12-11-2018
Aerosoft Airport Rio de Janeiro International V2.0 XP

L'Aeroporto Internazionale di Rio de Janeiro-Galeão (IATA: GIG, ICAO: SBGL), costruito nel 1952 nel quartiere di Ilha do Governador ed intitolato al musicista Antônio Carlos Jobim, è il principale aeroporto internazio ....


15-10-2018
Aerosoft A320 Family professional

La gamma di aeromobili A320 è una delle più comuni nei cieli. Questi aerei di linea a doppio-getto a corto e medio raggio si sono dimostrati convenienti, affidabili e prontamente disponibili, rendendoli le opzioni migl ....


10-10-2018
Motore critico ( Critical Engine )

Il motore critico di un velivolo ad ala fissa multi-motore è il motore che, in caso di guasto, influirebbe negativamente sulle prestazioni o sulla capacità di manovra di un aereo. Sui velivoli ad elica, vi è un ....


04-10-2018
Aerosoft Dortmund XP

Scopri il centro della regione della Ruhr su XPlane 11 - lo scenario Dortmund XP è una ricostruzione completa della città di Dortmund per il simulatore di volo targato Laminar. Oltre all'intera area urbana di Dortmu ....


07-08-2018
Aerosoft Professional Flight Planner PFPX

PFPX - Professional Flight Planner X - è un nuovo ed innovativo strumento di pianificazione del volo sviluppato da piloti e dispatcher del mondo reale. È un'aggiunta preziosa e realistica alla tua esperienza di simulaz ....